createdAt,value
2022-08-08T00:00:50.398Z,2.40
2022-08-08T00:03:31.839Z,2.00
2022-08-08T00:06:28.549Z,2.13
2022-08-08T00:09:22.147Z,2.00
2022-08-08T00:12:10.311Z,2.25
2022-08-08T00:14:59.578Z,2.00
2022-08-08T00:18:03.276Z,2.15
2022-08-08T00:20:50.745Z,1.70
2022-08-08T00:23:47.288Z,1.55
2022-08-08T00:26:45.807Z,1.70
2022-08-08T00:29:46.345Z,1.60
2022-08-08T00:32:36.138Z,1.58
2022-08-08T00:35:26.573Z,1.23
2022-08-08T00:38:31.784Z,1.50
2022-08-08T00:41:45.089Z,1.50
2022-08-08T00:44:51.229Z,1.30
2022-08-08T00:48:05.234Z,1.67
2022-08-08T00:51:10.623Z,1.65
2022-08-08T00:54:15.608Z,1.70
2022-08-08T00:57:29.569Z,1.73
2022-08-08T01:00:22.230Z,1.50
2022-08-08T01:04:02.282Z,1.42
2022-08-08T01:06:56.163Z,1.60
2022-08-08T01:10:06.187Z,1.45
2022-08-08T01:13:02.933Z,1.83
2022-08-08T01:15:58.501Z,1.38
2022-08-08T01:19:13.519Z,1.50
2022-08-08T01:22:32.668Z,1.67
2022-08-08T01:25:40.127Z,1.70
2022-08-08T01:28:44.116Z,1.50
2022-08-08T01:32:16.269Z,1.75
2022-08-08T01:35:11.256Z,1.40
2022-08-08T01:38:08.996Z,1.85
2022-08-08T01:41:01.230Z,1.65
2022-08-08T01:43:55.585Z,1.77
2022-08-08T01:46:52.325Z,1.65
2022-08-08T01:49:47.225Z,1.77
2022-08-08T01:54:03.500Z,1.80
2022-08-08T01:56:30.416Z,1.63
2022-08-08T01:58:59.056Z,1.65
2022-08-08T02:02:02.875Z,1.50
2022-08-08T02:04:57.274Z,1.70
2022-08-08T02:07:50.859Z,1.73
2022-08-08T02:10:46.949Z,1.80
2022-08-08T02:13:54.334Z,1.45
2022-08-08T02:16:50.468Z,1.60
2022-08-08T02:20:07.556Z,1.88
2022-08-08T02:22:55.201Z,1.60
2022-08-08T02:25:47.160Z,1.70
2022-08-08T02:28:41.352Z,1.55
2022-08-08T02:31:58.692Z,1.50
2022-08-08T02:35:08.576Z,1.60
2022-08-08T02:38:13.068Z,1.20
2022-08-08T02:41:18.028Z,1.58
2022-08-08T02:44:42.796Z,1.60
2022-08-08T02:48:00.526Z,1.50
2022-08-08T02:51:04.896Z,1.35
2022-08-08T02:54:08.417Z,1.45
2022-08-08T02:57:17.307Z,1.50
2022-08-08T03:00:31.131Z,1.58
2022-08-08T03:05:00.498Z,1.70
2022-08-08T03:07:00.872Z,1.48
2022-08-08T03:10:02.309Z,1.40
2022-08-08T03:13:02.297Z,1.50
2022-08-08T03:16:05.935Z,1.10
2022-08-08T03:19:01.241Z,1.50
2022-08-08T03:21:58.659Z,1.45
2022-08-08T03:24:45.505Z,1.45
2022-08-08T03:27:35.864Z,1.55
2022-08-08T03:30:25.676Z,1.73
2022-08-08T03:33:56.696Z,1.42
2022-08-08T03:36:27.571Z,1.55
2022-08-08T03:39:15.724Z,1.52
2022-08-08T03:42:12.679Z,1.42
2022-08-08T03:46:05.705Z,1.85
2022-08-08T03:49:09.659Z,1.70
2022-08-08T03:51:40.613Z,1.30
2022-08-08T03:54:41.537Z,1.52
2022-08-08T03:58:33.829Z,1.80
2022-08-08T04:01:01.374Z,1.70
2022-08-08T04:03:58.088Z,1.30
2022-08-08T04:06:47.879Z,1.75
2022-08-08T04:09:59.017Z,1.50
2022-08-08T04:12:35.590Z,1.65
2022-08-08T04:15:22.212Z,1.70
2022-08-08T04:18:06.035Z,1.80
2022-08-08T04:20:48.780Z,1.63
2022-08-08T04:23:33.157Z,1.55
2022-08-08T04:26:39.953Z,1.70
2022-08-08T04:29:38.812Z,1.60
2022-08-08T04:32:30.931Z,1.75
2022-08-08T04:35:18.115Z,1.67
2022-08-08T04:38:05.137Z,1.73
2022-08-08T04:40:54.288Z,1.92
2022-08-08T04:43:45.929Z,1.40
2022-08-08T04:46:36.452Z,1.70
2022-08-08T04:49:29.039Z,1.75
2022-08-08T04:52:33.647Z,1.67
2022-08-08T04:55:21.094Z,1.70
2022-08-08T04:58:09.466Z,1.70
2022-08-08T05:00:54.729Z,1.73
2022-08-08T05:04:07.828Z,1.60
2022-08-08T05:06:45.392Z,1.70
2022-08-08T05:09:29.149Z,1.60
2022-08-08T05:12:30.843Z,1.90
2022-08-08T05:15:15.994Z,1.65
2022-08-08T05:17:58.833Z,2.00
2022-08-08T05:20:50.486Z,1.50
2022-08-08T05:23:41.460Z,1.65
2022-08-08T05:26:29.729Z,1.80
2022-08-08T05:29:12.437Z,1.58
2022-08-08T05:32:03.785Z,1.65
2022-08-08T05:34:50.448Z,1.80
2022-08-08T05:37:52.731Z,1.90
2022-08-08T05:40:46.567Z,1.45
2022-08-08T05:44:02.826Z,1.60
2022-08-08T05:46:36.533Z,1.60
2022-08-08T05:49:21.364Z,1.55
2022-08-08T05:52:04.410Z,1.60
2022-08-08T05:54:52.754Z,1.60
2022-08-08T05:58:04.427Z,1.50
2022-08-08T06:00:44.975Z,1.30
2022-08-08T06:03:42.040Z,1.40
2022-08-08T06:06:32.622Z,1.42
2022-08-08T06:10:00.317Z,1.38
2022-08-08T06:12:30.341Z,1.48
2022-08-08T06:15:16.447Z,1.40
2022-08-08T06:18:21.276Z,1.60
2022-08-08T06:21:11.823Z,1.85
2022-08-08T06:24:13.988Z,1.40
2022-08-08T06:27:09.303Z,1.17
2022-08-08T06:30:02.187Z,1.00
2022-08-08T06:32:58.301Z,0.90
2022-08-08T06:36:06.197Z,1.02
2022-08-08T06:38:51.815Z,1.30
2022-08-08T06:41:35.787Z,1.50
2022-08-08T06:44:26.947Z,1.33
2022-08-08T06:47:15.294Z,0.80
2022-08-08T06:50:06.656Z,1.45
2022-08-08T06:52:55.673Z,1.40
2022-08-08T06:55:41.802Z,1.33
2022-08-08T06:58:30.306Z,1.40
2022-08-08T07:02:16.802Z,1.30
2022-08-08T07:04:38.965Z,1.40
2022-08-08T07:07:33.047Z,1.77
2022-08-08T07:10:21.653Z,1.42
2022-08-08T07:13:06.563Z,1.88
2022-08-08T07:16:10.708Z,1.63
2022-08-08T07:19:06.583Z,1.70
2022-08-08T07:22:05.029Z,1.33
2022-08-08T07:24:52.830Z,2.13
2022-08-08T07:28:00.601Z,1.50
2022-08-08T07:30:42.036Z,1.70
2022-08-08T07:33:26.922Z,1.70
2022-08-08T07:36:20.833Z,1.50
2022-08-08T07:39:07.125Z,1.50
2022-08-08T07:42:03.460Z,1.38
2022-08-08T07:44:48.729Z,1.20
2022-08-08T07:47:38.460Z,1.65
2022-08-08T07:50:25.367Z,1.27
2022-08-08T07:53:12.924Z,1.40
2022-08-08T07:56:36.713Z,1.50
2022-08-08T07:59:24.470Z,1.67
2022-08-08T08:02:36.626Z,1.48
2022-08-08T08:05:16.574Z,1.35
2022-08-08T08:08:03.729Z,1.27
2022-08-08T08:10:51.939Z,1.33
2022-08-08T08:14:06.417Z,1.20
2022-08-08T08:16:41.399Z,1.40
2022-08-08T08:19:45.089Z,1.02
2022-08-08T08:22:33.518Z,1.40
2022-08-08T08:25:40.979Z,1.48
2022-08-08T08:28:24.075Z,1.60
2022-08-08T08:31:14.990Z,1.25
2022-08-08T08:34:00.449Z,1.27
2022-08-08T08:36:44.633Z,1.20
2022-08-08T08:39:59.586Z,1.25
2022-08-08T08:42:38.564Z,1.30
2022-08-08T08:45:27.865Z,1.40
2022-08-08T08:48:21.035Z,1.23
2022-08-08T08:51:10.094Z,1.40
2022-08-08T08:53:59.809Z,1.70
2022-08-08T08:56:49.283Z,1.60
2022-08-08T09:00:01.860Z,1.58
2022-08-08T09:02:41.076Z,1.40
2022-08-08T09:05:49.238Z,1.38
2022-08-08T09:08:32.690Z,1.42
2022-08-08T09:11:16.954Z,1.30
2022-08-08T09:14:00.696Z,1.13
2022-08-08T09:16:44.131Z,1.20
2022-08-08T09:21:57.828Z,1.13
2022-08-08T09:22:35.720Z,1.10
2022-08-08T09:25:22.716Z,0.90
2022-08-08T09:28:35.697Z,1.20
2022-08-08T09:31:27.128Z,0.63
2022-08-08T09:34:34.673Z,0.80
2022-08-08T09:37:46.340Z,0.77
2022-08-08T09:40:46.491Z,0.90
2022-08-08T09:44:06.961Z,0.90
2022-08-08T09:46:57.304Z,0.85
2022-08-08T09:49:49.858Z,0.82
2022-08-08T09:52:56.465Z,0.93
2022-08-08T09:56:04.812Z,0.88
2022-08-08T09:58:57.862Z,0.80
2022-08-08T10:02:00.201Z,0.98
2022-08-08T10:04:47.518Z,0.80
2022-08-08T10:07:36.005Z,0.85
2022-08-08T10:10:30.298Z,1.30
2022-08-08T10:13:26.087Z,0.70
2022-08-08T10:16:15.410Z,0.70
2022-08-08T10:19:03.868Z,0.80
2022-08-08T10:21:51.250Z,0.90
2022-08-08T10:24:35.256Z,0.60
2022-08-08T10:27:22.075Z,0.65
2022-08-08T10:30:07.359Z,0.60
2022-08-08T10:33:00.795Z,0.90
2022-08-08T10:36:08.765Z,0.90
2022-08-08T10:38:59.401Z,0.93
2022-08-08T10:41:58.932Z,1.20
2022-08-08T10:44:49.513Z,1.13
2022-08-08T10:47:43.956Z,0.98
2022-08-08T10:50:35.302Z,0.77
2022-08-08T10:53:20.145Z,0.63
2022-08-08T10:56:26.983Z,0.75
2022-08-08T10:59:10.409Z,0.75
2022-08-08T11:01:57.495Z,0.80
2022-08-08T11:04:53.777Z,0.70
2022-08-08T11:08:30.152Z,0.90
2022-08-08T11:11:59.714Z,0.75
2022-08-08T11:14:25.688Z,0.88
2022-08-08T11:17:15.644Z,0.80
2022-08-08T11:20:06.696Z,1.00
2022-08-08T11:22:55.422Z,0.93
2022-08-08T11:25:53.221Z,0.90
2022-08-08T11:28:38.817Z,0.82
2022-08-08T11:31:24.444Z,0.70
2022-08-08T11:34:23.297Z,0.82
2022-08-08T11:37:15.278Z,0.90
2022-08-08T11:39:59.189Z,0.70
2022-08-08T11:42:43.927Z,0.80
2022-08-08T11:45:29.671Z,0.70
2022-08-08T11:48:12.967Z,0.70
2022-08-08T11:51:30.777Z,0.70
2022-08-08T11:54:09.884Z,0.68
2022-08-08T11:57:14.673Z,0.68
2022-08-08T12:00:05.828Z,0.70
2022-08-08T12:02:55.230Z,0.80
2022-08-08T12:05:39.496Z,0.63
2022-08-08T12:08:31.976Z,0.70
2022-08-08T12:11:26.859Z,1.00
2022-08-08T12:14:12.131Z,0.80
2022-08-08T12:16:55.331Z,0.80
2022-08-08T12:19:51.337Z,0.70
2022-08-08T12:22:44.958Z,0.40
2022-08-08T12:25:31.012Z,0.70
2022-08-08T12:28:16.325Z,0.77
2022-08-08T12:31:13.146Z,0.70
2022-08-08T12:34:02.053Z,0.60
2022-08-08T12:36:46.336Z,0.60
2022-08-08T12:40:00.943Z,0.63
2022-08-08T12:42:46.510Z,0.98
2022-08-08T12:45:58.246Z,0.60
2022-08-08T12:48:39.010Z,0.70
2022-08-08T12:51:22.187Z,0.80
2022-08-08T12:54:24.395Z,0.77
2022-08-08T12:57:17.249Z,0.70
2022-08-08T13:00:04.826Z,0.80
2022-08-08T13:03:00.708Z,0.77
2022-08-08T13:06:03.247Z,0.80
2022-08-08T13:08:53.623Z,0.80
2022-08-08T13:12:28.218Z,0.80
2022-08-08T13:14:52.947Z,0.77
2022-08-08T13:18:09.517Z,0.98
2022-08-08T13:20:48.371Z,0.60
2022-08-08T13:23:36.973Z,0.90
2022-08-08T13:26:24.348Z,0.85
2022-08-08T13:29:10.907Z,0.90
2022-08-08T13:31:53.701Z,0.88
2022-08-08T13:34:40.199Z,0.90
2022-08-08T13:37:28.049Z,1.02
2022-08-08T13:40:28.594Z,0.77
2022-08-08T13:43:11.825Z,0.80
2022-08-08T13:45:54.536Z,0.88
2022-08-08T13:50:33.466Z,0.80
2022-08-08T13:51:58.500Z,0.90
2022-08-08T13:54:49.544Z,0.95
2022-08-08T13:58:07.066Z,1.02
2022-08-08T14:00:40.134Z,0.98
2022-08-08T14:03:52.384Z,0.93
2022-08-08T14:06:35.941Z,1.20
2022-08-08T14:09:29.826Z,0.70
2022-08-08T14:12:26.142Z,0.88
2022-08-08T14:15:11.617Z,0.80
2022-08-08T14:17:58.777Z,0.93
2022-08-08T14:21:03.198Z,1.02
2022-08-08T14:24:04.198Z,0.82
2022-08-08T14:26:49.662Z,0.98
2022-08-08T14:29:34.655Z,1.00
2022-08-08T14:32:34.907Z,0.77
2022-08-08T14:35:19.258Z,0.88
2022-08-08T14:38:09.281Z,0.70
2022-08-08T14:40:52.793Z,0.70
2022-08-08T14:44:10.253Z,0.90
2022-08-08T14:46:57.930Z,0.90
2022-08-08T14:50:02.456Z,0.98
2022-08-08T14:52:49.186Z,0.93
2022-08-08T14:55:41.595Z,1.02
2022-08-08T14:58:25.864Z,0.80
2022-08-08T15:01:23.316Z,1.13
2022-08-08T15:04:09.665Z,0.70
2022-08-08T15:06:53.211Z,0.65
2022-08-08T15:09:35.966Z,0.98
2022-08-08T15:12:27.185Z,0.70
2022-08-08T15:15:11.072Z,0.77
2022-08-08T15:18:01.258Z,0.82
2022-08-08T15:20:45.809Z,0.80
2022-08-08T15:23:33.297Z,0.75
2022-08-08T15:26:17.878Z,0.70
2022-08-08T15:29:00.921Z,0.90
2022-08-08T15:32:03.794Z,0.70
2022-08-08T15:34:48.117Z,0.77
2022-08-08T15:37:32.165Z,0.80
2022-08-08T15:40:16.511Z,0.60
2022-08-08T15:42:59.909Z,0.90
2022-08-08T15:45:44.941Z,0.80
2022-08-08T15:48:31.597Z,0.85
2022-08-08T15:51:15.671Z,0.80
2022-08-08T15:54:00.439Z,0.90
2022-08-08T15:56:43.185Z,0.75
2022-08-08T16:00:05.689Z,0.70
2022-08-08T16:02:30.822Z,0.85
2022-08-08T16:05:14.708Z,1.08
2022-08-08T16:07:58.291Z,0.70
2022-08-08T16:13:14.104Z,0.80
2022-08-08T16:13:47.057Z,0.82
2022-08-08T16:16:32.405Z,0.57
2022-08-08T16:19:18.351Z,0.70
2022-08-08T16:22:06.870Z,0.80
2022-08-08T16:24:50.585Z,0.75
2022-08-08T16:27:35.341Z,0.68
2022-08-08T16:30:25.139Z,0.70
2022-08-08T16:33:19.549Z,0.60
2022-08-08T16:36:19.723Z,0.70
2022-08-08T16:39:48.961Z,0.88
2022-08-08T16:42:20.562Z,0.93
2022-08-08T16:45:11.303Z,0.70
2022-08-08T16:48:13.409Z,0.70
2022-08-08T16:50:56.247Z,0.80
2022-08-08T16:55:06.931Z,0.98
2022-08-08T16:57:01.907Z,0.70
2022-08-08T16:59:52.204Z,0.85
2022-08-08T17:02:39.345Z,1.08
2022-08-08T17:05:22.696Z,0.75
2022-08-08T17:08:14.054Z,0.80
2022-08-08T17:10:58.697Z,0.70
2022-08-08T17:14:00.965Z,0.70
2022-08-08T17:16:44.612Z,0.60
2022-08-08T17:19:42.433Z,0.70
2022-08-08T17:22:39.172Z,0.80
2022-08-08T17:25:41.787Z,0.70
2022-08-08T17:28:34.876Z,0.80
2022-08-08T17:31:43.662Z,0.60
2022-08-08T17:34:36.468Z,0.80
2022-08-08T17:37:25.911Z,1.15
2022-08-08T17:40:14.985Z,0.90
2022-08-08T17:42:58.048Z,0.60
2022-08-08T17:45:40.868Z,0.63
2022-08-08T17:48:29.250Z,0.70
2022-08-08T17:51:13.813Z,0.43
2022-08-08T17:54:04.895Z,0.80
2022-08-08T17:56:48.344Z,0.75
2022-08-08T17:59:36.493Z,0.60
2022-08-08T18:02:29.680Z,0.52
2022-08-08T18:05:14.731Z,0.43
2022-08-08T18:08:06.149Z,0.52
2022-08-08T18:10:51.388Z,0.70
2022-08-08T18:13:42.040Z,0.50
2022-08-08T18:16:27.019Z,0.55
2022-08-08T18:19:14.198Z,0.40
2022-08-08T18:21:59.391Z,0.52
2022-08-08T18:24:44.773Z,0.70
2022-08-08T18:27:34.513Z,0.50
2022-08-08T18:30:21.762Z,0.60
2022-08-08T18:33:05.062Z,0.52
2022-08-08T18:35:53.238Z,0.55
2022-08-08T18:38:46.139Z,0.40
2022-08-08T18:41:51.047Z,0.43
2022-08-08T18:44:36.586Z,0.50
2022-08-08T18:47:19.669Z,0.40
2022-08-08T18:50:03.144Z,0.50
2022-08-08T18:52:45.995Z,0.60
2022-08-08T18:55:34.652Z,0.40
2022-08-08T18:58:17.571Z,0.50
2022-08-08T19:01:05.659Z,0.60
2022-08-08T19:04:10.934Z,0.50
2022-08-08T19:06:55.515Z,0.60
2022-08-08T19:09:48.806Z,0.43
2022-08-08T19:12:44.655Z,0.60
2022-08-08T19:15:35.825Z,0.60
2022-08-08T19:18:31.877Z,0.50
2022-08-08T19:21:30.509Z,0.50
2022-08-08T19:24:38.769Z,0.45
2022-08-08T19:27:18.176Z,0.40
2022-08-08T19:30:24.534Z,0.43
2022-08-08T19:33:09.740Z,0.60
2022-08-08T19:36:07.947Z,0.90
2022-08-08T19:38:51.850Z,0.55
2022-08-08T19:41:34.777Z,0.60
2022-08-08T19:44:26.813Z,0.60
2022-08-08T19:47:23.920Z,0.40
2022-08-08T19:50:08.245Z,0.40
2022-08-08T19:52:54.650Z,0.63
2022-08-08T19:55:40.291Z,0.50
2022-08-08T19:58:27.620Z,0.60
2022-08-08T20:01:17.318Z,0.60
2022-08-08T20:04:03.582Z,0.60
2022-08-08T20:06:46.574Z,0.77
2022-08-08T20:09:36.430Z,0.60
2022-08-08T20:12:32.123Z,0.50
2022-08-08T20:15:17.963Z,0.50
2022-08-08T20:18:00.621Z,0.50
2022-08-08T20:20:46.609Z,0.60
2022-08-08T20:23:30.985Z,0.50
2022-08-08T20:26:17.784Z,0.50
2022-08-08T20:29:11.018Z,0.43
2022-08-08T20:32:10.033Z,0.75
2022-08-08T20:35:00.813Z,0.50
2022-08-08T20:37:53.342Z,0.50
2022-08-08T20:40:39.319Z,0.50
2022-08-08T20:43:43.774Z,0.55
2022-08-08T20:46:27.028Z,0.50
2022-08-08T20:49:12.887Z,0.57
2022-08-08T20:51:55.892Z,0.40
2022-08-08T20:54:40.164Z,0.57
2022-08-08T20:57:27.779Z,0.52
2022-08-08T21:00:13.175Z,0.50
2022-08-08T21:02:55.997Z,0.60
2022-08-08T21:05:49.308Z,0.55
2022-08-08T21:08:49.250Z,0.65
2022-08-08T21:11:51.816Z,0.50
2022-08-08T21:14:35.039Z,0.55
2022-08-08T21:17:19.615Z,0.52
2022-08-08T21:20:03.900Z,0.50
2022-08-08T21:22:48.698Z,0.55
2022-08-08T21:25:36.071Z,0.60
2022-08-08T21:28:33.459Z,0.60
2022-08-08T21:31:21.882Z,0.50
2022-08-08T21:34:07.768Z,0.50
2022-08-08T21:36:52.182Z,0.70
2022-08-08T21:39:54.721Z,0.60
2022-08-08T21:42:38.309Z,0.68
2022-08-08T21:47:59.106Z,0.57
2022-08-08T21:48:30.350Z,0.70
2022-08-08T21:54:18.084Z,0.50
2022-08-08T21:54:52.594Z,0.90
2022-08-08T21:57:42.061Z,0.80
2022-08-08T22:00:26.423Z,0.60
2022-08-08T22:03:10.936Z,0.70
2022-08-08T22:05:58.628Z,0.68
2022-08-08T22:08:42.726Z,0.70
2022-08-08T22:11:48.193Z,0.50
2022-08-08T22:14:29.060Z,0.57
2022-08-08T22:17:11.952Z,0.70
2022-08-08T22:20:12.191Z,0.60
2022-08-08T22:22:58.122Z,0.50
2022-08-08T22:26:27.421Z,0.60
2022-08-08T22:29:13.558Z,0.60
2022-08-08T22:32:02.114Z,0.88
2022-08-08T22:34:50.577Z,0.60
2022-08-08T22:37:53.719Z,0.70
2022-08-08T22:40:37.135Z,0.47
2022-08-08T22:43:22.409Z,0.60
2022-08-08T22:46:05.363Z,0.60
2022-08-08T22:48:54.881Z,0.57
2022-08-08T22:51:42.245Z,0.60
2022-08-08T22:54:53.460Z,0.93
2022-08-08T22:57:43.731Z,0.60
2022-08-08T23:00:28.672Z,0.50
2022-08-08T23:03:11.448Z,0.60
2022-08-08T23:06:00.167Z,0.50
2022-08-08T23:08:54.176Z,0.60
2022-08-08T23:12:27.428Z,0.90
2022-08-08T23:14:41.784Z,0.60
2022-08-08T23:17:46.535Z,0.60
2022-08-08T23:20:37.093Z,0.70
2022-08-08T23:23:19.858Z,0.60
2022-08-08T23:26:06.012Z,0.60
2022-08-08T23:28:54.070Z,0.63
2022-08-08T23:31:38.733Z,0.68
2022-08-08T23:34:25.733Z,0.50
2022-08-08T23:37:12.845Z,0.68
2022-08-08T23:39:58.062Z,0.50
2022-08-08T23:42:41.648Z,0.55
2022-08-08T23:49:02.735Z,0.60
2022-08-08T23:49:05.468Z,0.73
2022-08-08T23:51:42.142Z,0.50
2022-08-08T23:54:43.518Z,0.60
2022-08-08T23:57:52.132Z,0.52
